CTN7MC LIRN-EDDM
Flight info
| Callsign | CTN7MC |
|---|---|
| Flight time | 1h 20m |
| Altitude | 36000 |
| Route | ALAXI DCT INSOX DCT SUMIR DCT NAXAV DCT SOTOV T101 BETOS BETOS1A |
| Aircraft | A320/M-SDE3FGHIRWY/LB1 |
Departure
| Time | 2026-04-30 18:28 |
|---|---|
| Airport | Naples International Airport (LIRN) |
Arrival
| Time | 2026-04-30 19:48 |
|---|---|
| Airport | Munich Airport (EDDM) |
| Time | Latitude | Longitude | Altitude | Speed | Heading |
|---|---|---|---|---|---|
| 2026-04-30 18:08 | 40.87774 | 14.28011 | 299 ft | 0 kts | 141° |
| 2026-04-30 18:20 | 40.87778 | 14.28006 | 297 ft | 2 kts | 142° |
| 2026-04-30 18:20 | 40.87794 | 14.27992 | 298 ft | 3 kts | 150° |
| 2026-04-30 18:20 | 40.87812 | 14.27980 | 299 ft | 3 kts | 161° |
| 2026-04-30 18:21 | 40.87831 | 14.27973 | 299 ft | 3 kts | 175° |
| 2026-04-30 18:21 | 40.87851 | 14.27973 | 299 ft | 3 kts | 192° |
| 2026-04-30 18:21 | 40.87870 | 14.27982 | 299 ft | 3 kts | 213° |
| 2026-04-30 18:21 | 40.87882 | 14.27994 | 297 ft | 1 kts | 230° |
| 2026-04-30 18:22 | 40.87883 | 14.27996 | 297 ft | 0 kts | 231° |
| 2026-04-30 18:24 | 40.87882 | 14.27995 | 296 ft | 1 kts | 231° |
| 2026-04-30 18:24 | 40.87871 | 14.27976 | 297 ft | 3 kts | 231° |
| 2026-04-30 18:25 | 40.87862 | 14.27961 | 298 ft | 2 kts | 232° |
| 2026-04-30 18:25 | 40.87864 | 14.27886 | 302 ft | 4 kts | 314° |
| 2026-04-30 18:25 | 40.87884 | 14.27863 | 300 ft | 5 kts | 319° |
| 2026-04-30 18:26 | 40.87925 | 14.27817 | 298 ft | 3 kts | 324° |
| 2026-04-30 18:26 | 40.87959 | 14.27794 | 299 ft | 8 kts | 340° |
| 2026-04-30 18:26 | 40.88010 | 14.27816 | 298 ft | 10 kts | 51° |
| 2026-04-30 18:27 | 40.88251 | 14.28331 | 285 ft | 89 kts | 58° |
| 2026-04-30 18:27 | 40.88690 | 14.29262 | 285 ft | 145 kts | 58° |
| 2026-04-30 18:28 | 40.89756 | 14.31521 | 1669 ft | 143 kts | 57° |
| 2026-04-30 18:28 | 40.90287 | 14.32647 | 2367 ft | 145 kts | 57° |
| 2026-04-30 18:28 | 40.91363 | 14.34862 | 3713 ft | 148 kts | 55° |
| 2026-04-30 18:29 | 40.91953 | 14.36091 | 4060 ft | 168 kts | 55° |
| 2026-04-30 18:29 | 40.94574 | 14.40031 | 5767 ft | 204 kts | 21° |
| 2026-04-30 18:30 | 40.96948 | 14.40250 | 6927 ft | 216 kts | 346° |
| 2026-04-30 18:30 | 41.00451 | 14.38555 | 8502 ft | 240 kts | 340° |
| 2026-04-30 18:31 | 41.02013 | 14.37823 | 9358 ft | 244 kts | 340° |
| 2026-04-30 18:31 | 41.05297 | 14.36313 | 10817 ft | 259 kts | 339° |
| 2026-04-30 18:32 | 41.08304 | 14.34972 | 11446 ft | 292 kts | 339° |
| 2026-04-30 18:32 | 41.10998 | 14.33676 | 11739 ft | 323 kts | 334° |
| 2026-04-30 18:32 | 41.14292 | 14.31090 | 12750 ft | 336 kts | 327° |
| 2026-04-30 18:33 | 41.16288 | 14.29444 | 13514 ft | 339 kts | 327° |
| 2026-04-30 18:33 | 41.20318 | 14.26114 | 14928 ft | 344 kts | 326° |
| 2026-04-30 18:33 | 41.22412 | 14.24551 | 15606 ft | 349 kts | 335° |
| 2026-04-30 18:34 | 41.24677 | 14.23346 | 16284 ft | 352 kts | 336° |
| 2026-04-30 18:34 | 41.29267 | 14.20934 | 17620 ft | 358 kts | 336° |
| 2026-04-30 18:34 | 41.31594 | 14.19714 | 18309 ft | 361 kts | 336° |
| 2026-04-30 18:35 | 41.33937 | 14.18481 | 18921 ft | 363 kts | 335° |
| 2026-04-30 18:35 | 41.36297 | 14.17239 | 19537 ft | 365 kts | 335° |
| 2026-04-30 18:35 | 41.38666 | 14.15991 | 20132 ft | 368 kts | 335° |
| 2026-04-30 18:36 | 41.43460 | 14.13458 | 21312 ft | 373 kts | 335° |
| 2026-04-30 18:36 | 41.45879 | 14.12182 | 21892 ft | 375 kts | 335° |
| 2026-04-30 18:36 | 41.50764 | 14.09605 | 22975 ft | 379 kts | 334° |
| 2026-04-30 18:37 | 41.53223 | 14.08306 | 23475 ft | 381 kts | 334° |
| 2026-04-30 18:37 | 41.55698 | 14.06998 | 23943 ft | 384 kts | 334° |
| 2026-04-30 18:37 | 41.58186 | 14.05681 | 24358 ft | 386 kts | 334° |
| 2026-04-30 18:37 | 41.60689 | 14.04353 | 24775 ft | 387 kts | 334° |
| 2026-04-30 18:38 | 41.63170 | 14.03039 | 25178 ft | 389 kts | 334° |
| 2026-04-30 18:38 | 41.65688 | 14.01704 | 25580 ft | 390 kts | 334° |
| 2026-04-30 18:38 | 41.68215 | 14.00360 | 25971 ft | 391 kts | 333° |
| 2026-04-30 18:38 | 41.70744 | 13.99013 | 26371 ft | 392 kts | 333° |
| 2026-04-30 18:39 | 41.73284 | 13.97658 | 26759 ft | 393 kts | 333° |
| 2026-04-30 18:39 | 41.75833 | 13.96298 | 27131 ft | 395 kts | 333° |
| 2026-04-30 18:39 | 41.78386 | 13.94940 | 27547 ft | 396 kts | 333° |
| 2026-04-30 18:39 | 41.80947 | 13.93573 | 27919 ft | 396 kts | 333° |
| 2026-04-30 18:40 | 41.83508 | 13.92204 | 28215 ft | 397 kts | 332° |
| 2026-04-30 18:40 | 41.86078 | 13.90826 | 28520 ft | 398 kts | 332° |
| 2026-04-30 18:40 | 41.88656 | 13.89442 | 28851 ft | 400 kts | 332° |
| 2026-04-30 18:40 | 41.91247 | 13.88054 | 29206 ft | 401 kts | 332° |
| 2026-04-30 18:41 | 41.93845 | 13.86661 | 29540 ft | 403 kts | 332° |
| 2026-04-30 18:41 | 41.96454 | 13.85260 | 29809 ft | 404 kts | 332° |
| 2026-04-30 18:41 | 41.99068 | 13.83855 | 30083 ft | 405 kts | 332° |
| 2026-04-30 18:41 | 42.01683 | 13.82453 | 30389 ft | 403 kts | 332° |
| 2026-04-30 18:42 | 42.04281 | 13.81062 | 30587 ft | 402 kts | 332° |
| 2026-04-30 18:42 | 42.09472 | 13.78262 | 31090 ft | 402 kts | 332° |
| 2026-04-30 18:42 | 42.12068 | 13.76860 | 31369 ft | 402 kts | 332° |
| 2026-04-30 18:45 | 42.37889 | 13.62856 | 34241 ft | 399 kts | 333° |
| 2026-04-30 18:45 | 42.40466 | 13.61452 | 34481 ft | 399 kts | 333° |
| 2026-04-30 18:45 | 42.43044 | 13.60047 | 34722 ft | 400 kts | 333° |
| 2026-04-30 18:46 | 42.45623 | 13.58641 | 34938 ft | 400 kts | 333° |
| 2026-04-30 18:46 | 42.48210 | 13.57230 | 35132 ft | 401 kts | 333° |
| 2026-04-30 18:46 | 42.50807 | 13.55813 | 35345 ft | 402 kts | 334° |
| 2026-04-30 18:46 | 42.53406 | 13.54397 | 35550 ft | 403 kts | 334° |
| 2026-04-30 18:47 | 42.56013 | 13.52971 | 35738 ft | 404 kts | 334° |
| 2026-04-30 18:47 | 42.58622 | 13.51538 | 35923 ft | 404 kts | 334° |
| 2026-04-30 18:47 | 42.61230 | 13.50103 | 36103 ft | 405 kts | 334° |
| 2026-04-30 18:47 | 42.63843 | 13.48663 | 36245 ft | 406 kts | 334° |
| 2026-04-30 18:48 | 42.66435 | 13.47234 | 36276 ft | 408 kts | 334° |
| 2026-04-30 18:48 | 42.71712 | 13.44332 | 36278 ft | 409 kts | 334° |
| 2026-04-30 18:49 | 42.76984 | 13.41434 | 36276 ft | 409 kts | 334° |
| 2026-04-30 18:49 | 42.82261 | 13.38515 | 36279 ft | 409 kts | 334° |
| 2026-04-30 18:50 | 42.87534 | 13.35587 | 36283 ft | 410 kts | 334° |
| 2026-04-30 18:50 | 42.92836 | 13.32646 | 36273 ft | 411 kts | 334° |
| 2026-04-30 18:51 | 42.98148 | 13.29705 | 36273 ft | 412 kts | 334° |
| 2026-04-30 18:51 | 43.03420 | 13.26774 | 36278 ft | 412 kts | 334° |
| 2026-04-30 18:52 | 43.08729 | 13.23808 | 36303 ft | 413 kts | 335° |
| 2026-04-30 18:52 | 43.14057 | 13.20833 | 36293 ft | 414 kts | 335° |
| 2026-04-30 18:53 | 43.19394 | 13.17842 | 36289 ft | 414 kts | 335° |
| 2026-04-30 18:53 | 43.24728 | 13.14854 | 36295 ft | 415 kts | 335° |
| 2026-04-30 18:54 | 43.30068 | 13.11846 | 36283 ft | 415 kts | 335° |
| 2026-04-30 18:54 | 43.35408 | 13.08827 | 36285 ft | 415 kts | 335° |
| 2026-04-30 18:55 | 43.40755 | 13.05815 | 36291 ft | 415 kts | 335° |
| 2026-04-30 18:55 | 43.48738 | 13.01306 | 36325 ft | 415 kts | 336° |
| 2026-04-30 18:56 | 43.56746 | 12.96766 | 36311 ft | 415 kts | 336° |
| 2026-04-30 18:57 | 43.64747 | 12.92214 | 36307 ft | 414 kts | 336° |
| 2026-04-30 18:57 | 43.70068 | 12.89177 | 36313 ft | 414 kts | 336° |
| 2026-04-30 18:58 | 43.78052 | 12.84620 | 36309 ft | 413 kts | 336° |
| 2026-04-30 18:59 | 43.86027 | 12.80054 | 36312 ft | 413 kts | 336° |
| 2026-04-30 19:00 | 43.96633 | 12.73950 | 36314 ft | 412 kts | 337° |
| 2026-04-30 19:01 | 44.07194 | 12.67849 | 36317 ft | 410 kts | 337° |
| 2026-04-30 19:02 | 44.15090 | 12.63272 | 36312 ft | 410 kts | 337° |
| 2026-04-30 19:03 | 44.25576 | 12.57183 | 36309 ft | 409 kts | 337° |
| 2026-04-30 19:04 | 44.36099 | 12.51041 | 36311 ft | 410 kts | 337° |
| 2026-04-30 19:05 | 44.46633 | 12.44866 | 36294 ft | 410 kts | 337° |
| 2026-04-30 19:06 | 44.57161 | 12.38671 | 36323 ft | 410 kts | 337° |
| 2026-04-30 19:06 | 44.65058 | 12.34004 | 36321 ft | 410 kts | 337° |
| 2026-04-30 19:07 | 44.72955 | 12.29337 | 36336 ft | 410 kts | 337° |
| 2026-04-30 19:08 | 44.83492 | 12.23099 | 36299 ft | 411 kts | 337° |
| 2026-04-30 19:09 | 44.91347 | 12.18399 | 36315 ft | 410 kts | 337° |
| 2026-04-30 19:09 | 44.96599 | 12.15255 | 36328 ft | 410 kts | 337° |
| 2026-04-30 19:10 | 45.07123 | 12.08962 | 36318 ft | 411 kts | 337° |
| 2026-04-30 19:11 | 45.15062 | 12.04195 | 36337 ft | 414 kts | 338° |
| 2026-04-30 19:12 | 45.20354 | 12.01000 | 36289 ft | 414 kts | 338° |
| 2026-04-30 19:12 | 45.25651 | 11.97799 | 36299 ft | 414 kts | 338° |
| 2026-04-30 19:13 | 45.36247 | 11.91380 | 36320 ft | 414 kts | 338° |
| 2026-04-30 19:14 | 45.41565 | 11.88148 | 36315 ft | 415 kts | 338° |
| 2026-04-30 19:14 | 45.46882 | 11.84917 | 36310 ft | 416 kts | 338° |
| 2026-04-30 19:15 | 45.52203 | 11.81663 | 36312 ft | 416 kts | 338° |
| 2026-04-30 19:15 | 45.60163 | 11.76789 | 36284 ft | 417 kts | 339° |
| 2026-04-30 19:16 | 45.65529 | 11.73494 | 36295 ft | 417 kts | 339° |
| 2026-04-30 19:17 | 45.73494 | 11.68587 | 36318 ft | 417 kts | 339° |
| 2026-04-30 19:17 | 45.81491 | 11.63658 | 36338 ft | 417 kts | 339° |
| 2026-04-30 19:18 | 45.89489 | 11.58696 | 36330 ft | 417 kts | 339° |
| 2026-04-30 19:19 | 45.94806 | 11.55408 | 36331 ft | 417 kts | 339° |
| 2026-04-30 19:19 | 46.01899 | 11.51006 | 36337 ft | 417 kts | 340° |
| 2026-04-30 19:20 | 46.07233 | 11.47675 | 36319 ft | 417 kts | 339° |
| 2026-04-30 19:21 | 46.15203 | 11.42682 | 36317 ft | 417 kts | 339° |
| 2026-04-30 19:22 | 46.25891 | 11.36230 | 36289 ft | 414 kts | 347° |
| 2026-04-30 19:23 | 46.42887 | 11.32860 | 36249 ft | 412 kts | 355° |
| 2026-04-30 19:24 | 46.51393 | 11.31157 | 36228 ft | 411 kts | 353° |
| 2026-04-30 19:24 | 46.56102 | 11.30040 | 35760 ft | 412 kts | 353° |
| 2026-04-30 19:25 | 46.64168 | 11.28089 | 34381 ft | 408 kts | 355° |
| 2026-04-30 19:26 | 46.69769 | 11.26787 | 33299 ft | 408 kts | 355° |
| 2026-04-30 19:26 | 46.75409 | 11.25502 | 32237 ft | 411 kts | 356° |
| 2026-04-30 19:26 | 46.78240 | 11.24855 | 31720 ft | 413 kts | 356° |
| 2026-04-30 19:27 | 46.83938 | 11.23522 | 30710 ft | 416 kts | 356° |
| 2026-04-30 19:27 | 46.89641 | 11.22185 | 29637 ft | 419 kts | 357° |
| 2026-04-30 19:28 | 46.92522 | 11.21510 | 29085 ft | 421 kts | 357° |
| 2026-04-30 19:28 | 46.98273 | 11.21315 | 27991 ft | 409 kts | 7° |
| 2026-04-30 19:29 | 47.03914 | 11.21694 | 26943 ft | 403 kts | 7° |
| 2026-04-30 19:29 | 47.06705 | 11.21873 | 26426 ft | 400 kts | 7° |
| 2026-04-30 19:30 | 47.14968 | 11.22427 | 24948 ft | 392 kts | 7° |
| 2026-04-30 19:30 | 47.20382 | 11.22787 | 24008 ft | 387 kts | 7° |
| 2026-04-30 19:31 | 47.25738 | 11.23147 | 22913 ft | 383 kts | 7° |
| 2026-04-30 19:31 | 47.28404 | 11.23333 | 22356 ft | 384 kts | 6° |
| 2026-04-30 19:31 | 47.33728 | 11.23699 | 21329 ft | 381 kts | 6° |
| 2026-04-30 19:32 | 47.36366 | 11.23878 | 20821 ft | 379 kts | 6° |
| 2026-04-30 19:32 | 47.38987 | 11.24052 | 20323 ft | 377 kts | 6° |
| 2026-04-30 19:32 | 47.41605 | 11.24230 | 19829 ft | 375 kts | 6° |
| 2026-04-30 19:32 | 47.44202 | 11.24414 | 19358 ft | 373 kts | 6° |
| 2026-04-30 19:33 | 47.46785 | 11.24596 | 18985 ft | 371 kts | 6° |
| 2026-04-30 19:33 | 47.49364 | 11.24779 | 18630 ft | 370 kts | 6° |
| 2026-04-30 19:33 | 47.51931 | 11.24958 | 18240 ft | 369 kts | 6° |
| 2026-04-30 19:33 | 47.54459 | 11.25131 | 17845 ft | 368 kts | 6° |
| 2026-04-30 19:34 | 47.57013 | 11.25240 | 17451 ft | 367 kts | 4° |
| 2026-04-30 19:34 | 47.59569 | 11.25253 | 17070 ft | 366 kts | 3° |
| 2026-04-30 19:34 | 47.64649 | 11.25151 | 16303 ft | 364 kts | 2° |
| 2026-04-30 19:35 | 47.67183 | 11.25103 | 15927 ft | 363 kts | 2° |
| 2026-04-30 19:35 | 47.69705 | 11.25068 | 15554 ft | 362 kts | 3° |
| 2026-04-30 19:35 | 47.72215 | 11.25174 | 15204 ft | 358 kts | 9° |
| 2026-04-30 19:35 | 47.74659 | 11.25795 | 14915 ft | 355 kts | 17° |
| 2026-04-30 19:36 | 47.76995 | 11.26921 | 14637 ft | 352 kts | 23° |
| 2026-04-30 19:36 | 47.79285 | 11.28212 | 14348 ft | 352 kts | 23° |
| 2026-04-30 19:36 | 47.83987 | 11.30155 | 13743 ft | 355 kts | 6° |
| 2026-04-30 19:37 | 47.86452 | 11.30273 | 13439 ft | 355 kts | 4° |
| 2026-04-30 19:37 | 47.88916 | 11.30363 | 12925 ft | 354 kts | 4° |
| 2026-04-30 19:37 | 47.91359 | 11.30445 | 12418 ft | 348 kts | 4° |
| 2026-04-30 19:37 | 47.93765 | 11.30530 | 11916 ft | 343 kts | 4° |
| 2026-04-30 19:38 | 47.96135 | 11.30619 | 11418 ft | 339 kts | 4° |
| 2026-04-30 19:38 | 47.98482 | 11.30713 | 10928 ft | 335 kts | 4° |
| 2026-04-30 19:38 | 48.00767 | 11.30807 | 10750 ft | 321 kts | 4° |
| 2026-04-30 19:38 | 48.02954 | 11.30893 | 10630 ft | 308 kts | 4° |
| 2026-04-30 19:39 | 48.05049 | 11.30969 | 10504 ft | 295 kts | 4° |
| 2026-04-30 19:39 | 48.07063 | 11.31038 | 10352 ft | 285 kts | 4° |
| 2026-04-30 19:39 | 48.09027 | 11.31104 | 10025 ft | 281 kts | 4° |
| 2026-04-30 19:39 | 48.10976 | 11.31168 | 9618 ft | 279 kts | 4° |
| 2026-04-30 19:40 | 48.12918 | 11.31227 | 9213 ft | 278 kts | 4° |
| 2026-04-30 19:40 | 48.14849 | 11.31288 | 8797 ft | 277 kts | 4° |
| 2026-04-30 19:40 | 48.16776 | 11.31346 | 8381 ft | 276 kts | 4° |
| 2026-04-30 19:40 | 48.18668 | 11.31403 | 7979 ft | 275 kts | 4° |
| 2026-04-30 19:41 | 48.20598 | 11.31535 | 7551 ft | 272 kts | 13° |
| 2026-04-30 19:41 | 48.22372 | 11.32356 | 7237 ft | 264 kts | 23° |
| 2026-04-30 19:41 | 48.24068 | 11.33335 | 6971 ft | 257 kts | 24° |
| 2026-04-30 19:41 | 48.25706 | 11.34292 | 6775 ft | 248 kts | 24° |
| 2026-04-30 19:42 | 48.27239 | 11.35295 | 6489 ft | 240 kts | 36° |
| 2026-04-30 19:42 | 48.28434 | 11.36993 | 6178 ft | 231 kts | 52° |
| 2026-04-30 19:42 | 48.29428 | 11.38820 | 5898 ft | 227 kts | 54° |
| 2026-04-30 19:42 | 48.30417 | 11.40674 | 5637 ft | 222 kts | 54° |
| 2026-04-30 19:43 | 48.31308 | 11.42543 | 5317 ft | 218 kts | 68° |
| 2026-04-30 19:43 | 48.31673 | 11.44721 | 4914 ft | 214 kts | 84° |
| 2026-04-30 19:43 | 48.31843 | 11.46900 | 4497 ft | 207 kts | 84° |
| 2026-04-30 19:44 | 48.32179 | 11.51164 | 3997 ft | 197 kts | 84° |
| 2026-04-30 19:44 | 48.32336 | 11.53121 | 3997 ft | 181 kts | 84° |
| 2026-04-30 19:44 | 48.32480 | 11.54928 | 3999 ft | 172 kts | 84° |
| 2026-04-30 19:44 | 48.32616 | 11.56646 | 3929 ft | 160 kts | 84° |
| 2026-04-30 19:45 | 48.32746 | 11.58281 | 3806 ft | 154 kts | 84° |
| 2026-04-30 19:45 | 48.32870 | 11.59850 | 3603 ft | 148 kts | 85° |
| 2026-04-30 19:45 | 48.32990 | 11.61363 | 3395 ft | 144 kts | 84° |
| 2026-04-30 19:45 | 48.33105 | 11.62824 | 3197 ft | 136 kts | 85° |
| 2026-04-30 19:46 | 48.33214 | 11.64212 | 3030 ft | 132 kts | 85° |
| 2026-04-30 19:46 | 48.33321 | 11.65568 | 2854 ft | 129 kts | 85° |
| 2026-04-30 19:46 | 48.33426 | 11.66910 | 2673 ft | 131 kts | 84° |
| 2026-04-30 19:46 | 48.33534 | 11.68286 | 2472 ft | 132 kts | 85° |
| 2026-04-30 19:47 | 48.33641 | 11.69655 | 2277 ft | 133 kts | 84° |
| 2026-04-30 19:47 | 48.33712 | 11.70563 | 2149 ft | 131 kts | 84° |
| 2026-04-30 19:47 | 48.33853 | 11.72381 | 1910 ft | 132 kts | 84° |
| 2026-04-30 19:47 | 48.33963 | 11.73768 | 1730 ft | 134 kts | 82° |
| 2026-04-30 19:48 | 48.34074 | 11.75181 | 1538 ft | 137 kts | 84° |
| 2026-04-30 19:48 | 48.34174 | 11.76494 | 1486 ft | 112 kts | 83° |
| 2026-04-30 19:48 | 48.34247 | 11.77415 | 1485 ft | 67 kts | 83° |
| 2026-04-30 19:48 | 48.34289 | 11.77969 | 1485 ft | 35 kts | 82° |
| 2026-04-30 19:49 | 48.34353 | 11.78302 | 1476 ft | 32 kts | 58° |
| 2026-04-30 19:49 | 48.34526 | 11.78656 | 1485 ft | 15 kts | 54° |
| 2026-04-30 19:49 | 48.34550 | 11.78704 | 1472 ft | 1 kts | 53° |
| 2026-04-30 19:50 | 48.34551 | 11.78706 | 1472 ft | 0 kts | 53° |
| 2026-04-30 19:50 | 48.34586 | 11.78777 | 1479 ft | 14 kts | 53° |
| 2026-04-30 19:50 | 48.34631 | 11.78914 | 1483 ft | 16 kts | 78° |
| 2026-04-30 19:50 | 48.34647 | 11.79096 | 1477 ft | 18 kts | 83° |
| 2026-04-30 19:51 | 48.34662 | 11.79299 | 1485 ft | 21 kts | 83° |
| 2026-04-30 19:51 | 48.34679 | 11.79508 | 1485 ft | 18 kts | 82° |
| 2026-04-30 19:51 | 48.34692 | 11.79668 | 1483 ft | 12 kts | 75° |
| 2026-04-30 19:51 | 48.34759 | 11.79711 | 1482 ft | 8 kts | 355° |
| 2026-04-30 19:52 | 48.34805 | 11.79702 | 1482 ft | 7 kts | 353° |
| 2026-04-30 19:52 | 48.34809 | 11.79702 | 1484 ft | 7 kts | 353° |